createdAt,value
2022-10-20T00:04:31.603Z,971
2022-10-20T00:09:33.289Z,971
2022-10-20T00:14:35.230Z,971
2022-10-20T00:19:37.380Z,971
2022-10-20T00:24:39.074Z,971
2022-10-20T00:29:41.132Z,970
2022-10-20T00:34:42.854Z,970
2022-10-20T00:39:44.775Z,971
2022-10-20T00:44:46.479Z,970
2022-10-20T00:49:48.482Z,970
2022-10-20T00:54:50.815Z,970
2022-10-20T00:59:52.548Z,970
2022-10-20T01:04:54.494Z,970
2022-10-20T01:09:56.634Z,970
2022-10-20T01:14:58.654Z,970
2022-10-20T01:20:00.472Z,970
2022-10-20T01:25:02.405Z,971
2022-10-20T01:30:04.465Z,971
2022-10-20T01:35:06.137Z,971
2022-10-20T01:40:08.055Z,971
2022-10-20T01:45:09.805Z,971
2022-10-20T01:50:11.398Z,971
2022-10-20T01:55:13.141Z,971
2022-10-20T02:00:14.771Z,971
2022-10-20T02:05:16.396Z,971
2022-10-20T02:10:18.049Z,971
2022-10-20T02:15:19.698Z,971
2022-10-20T02:20:21.331Z,971
2022-10-20T02:25:22.996Z,971
2022-10-20T02:30:24.651Z,971
2022-10-20T02:35:26.281Z,971
2022-10-20T02:40:27.880Z,971
2022-10-20T02:45:29.528Z,971
2022-10-20T02:50:31.174Z,970
2022-10-20T02:55:32.772Z,971
2022-10-20T03:00:34.411Z,971
2022-10-20T03:05:36.192Z,971
2022-10-20T03:10:37.824Z,971
2022-10-20T03:15:39.442Z,971
2022-10-20T03:20:41.049Z,971
2022-10-20T03:25:42.803Z,971
2022-10-20T03:30:44.405Z,971
2022-10-20T03:35:46.905Z,971
2022-10-20T03:40:48.729Z,971
2022-10-20T03:45:50.378Z,971
2022-10-20T03:50:52.022Z,971
2022-10-20T03:55:53.670Z,970
2022-10-20T04:00:55.269Z,970
2022-10-20T04:05:56.776Z,970
2022-10-20T04:10:58.393Z,970
2022-10-20T04:16:00.003Z,970
2022-10-20T04:21:01.650Z,970
2022-10-20T04:26:03.381Z,970
2022-10-20T04:31:04.998Z,970
2022-10-20T04:36:06.602Z,970
2022-10-20T04:41:08.263Z,970
2022-10-20T04:46:09.886Z,970
2022-10-20T04:51:11.484Z,971
2022-10-20T04:56:13.229Z,971
2022-10-20T05:01:14.986Z,970
2022-10-20T05:06:16.721Z,970
2022-10-20T05:11:18.344Z,970
2022-10-20T05:16:20.059Z,970
2022-10-20T05:21:21.777Z,970
2022-10-20T05:26:23.358Z,970
2022-10-20T05:31:25.118Z,970
2022-10-20T05:36:26.772Z,970
2022-10-20T05:41:28.379Z,970
2022-10-20T05:46:29.989Z,970
2022-10-20T05:51:31.618Z,970
2022-10-20T05:56:33.208Z,970
2022-10-20T06:01:34.805Z,970
2022-10-20T06:06:36.437Z,970
2022-10-20T06:11:39.501Z,970
2022-10-20T06:16:41.447Z,970
2022-10-20T06:26:44.886Z,970
2022-10-20T06:31:46.483Z,970
2022-10-20T06:36:48.104Z,970
2022-10-20T06:41:49.748Z,970
2022-10-20T06:46:51.378Z,970
2022-10-20T06:51:53.198Z,970
2022-10-20T06:56:54.775Z,969
2022-10-20T07:01:56.398Z,969
2022-10-20T07:06:58.041Z,969
2022-10-20T07:11:59.644Z,969
2022-10-20T07:17:01.282Z,969
2022-10-20T07:22:03.036Z,969
2022-10-20T07:27:04.673Z,969
2022-10-20T07:32:06.275Z,969
2022-10-20T07:37:07.976Z,969
2022-10-20T07:42:09.687Z,969
2022-10-20T07:47:11.336Z,969
2022-10-20T07:52:12.956Z,969
2022-10-20T07:57:14.611Z,969
2022-10-20T08:02:16.295Z,969
2022-10-20T08:07:17.983Z,969
2022-10-20T08:12:19.700Z,969
2022-10-20T08:17:22.128Z,968
2022-10-20T08:22:23.835Z,968
2022-10-20T08:27:25.503Z,968
2022-10-20T08:32:27.094Z,968
2022-10-20T08:37:28.691Z,968
2022-10-20T08:42:30.289Z,968
2022-10-20T08:47:33.440Z,968
2022-10-20T08:52:35.438Z,968
2022-10-20T08:57:37.116Z,968
2022-10-20T09:02:38.827Z,968
2022-10-20T09:07:40.580Z,968
2022-10-20T09:12:42.201Z,968
2022-10-20T09:17:43.843Z,968
2022-10-20T09:22:45.434Z,968
2022-10-20T09:27:47.036Z,968
2022-10-20T09:32:48.884Z,968
2022-10-20T09:37:50.602Z,968
2022-10-20T09:42:52.267Z,968
2022-10-20T09:47:53.987Z,968
2022-10-20T09:52:55.581Z,968
2022-10-20T09:57:57.281Z,968
2022-10-20T10:02:59.018Z,968
2022-10-20T10:08:00.629Z,967
2022-10-20T10:13:02.339Z,967
2022-10-20T10:18:04.006Z,967
2022-10-20T10:23:05.611Z,967
2022-10-20T10:28:07.444Z,967
2022-10-20T10:33:09.051Z,967
2022-10-20T10:38:10.650Z,967
2022-10-20T10:43:12.326Z,967
2022-10-20T10:48:14.112Z,967
2022-10-20T10:53:15.732Z,967
2022-10-20T10:58:17.380Z,967
2022-10-20T11:03:19.079Z,967
2022-10-20T11:08:20.689Z,967
2022-10-20T11:13:24.558Z,967
2022-10-20T11:18:28.621Z,967
2022-10-20T11:23:30.263Z,966
2022-10-20T11:28:31.950Z,966
2022-10-20T11:33:35.723Z,966
2022-10-20T11:38:39.644Z,966
2022-10-20T11:43:41.373Z,966
2022-10-20T11:48:42.954Z,966
2022-10-20T11:53:44.860Z,966
2022-10-20T11:58:46.518Z,966
2022-10-20T12:03:48.146Z,966
2022-10-20T12:08:49.787Z,966
2022-10-20T12:13:51.442Z,966
2022-10-20T12:18:53.155Z,966
2022-10-20T12:23:54.849Z,966
2022-10-20T12:28:56.442Z,966
2022-10-20T12:33:58.086Z,966
2022-10-20T12:38:59.734Z,966
2022-10-20T12:44:01.349Z,966
2022-10-20T12:49:05.535Z,966
2022-10-20T12:54:10.062Z,966
2022-10-20T12:59:11.667Z,966
2022-10-20T13:04:13.353Z,966
2022-10-20T13:09:14.988Z,966
2022-10-20T13:14:16.618Z,965
2022-10-20T13:19:18.232Z,965
2022-10-20T13:24:19.874Z,965
2022-10-20T13:29:21.522Z,965
2022-10-20T13:34:23.158Z,965
2022-10-20T13:39:24.878Z,965
2022-10-20T13:44:31.196Z,965
2022-10-20T13:49:33.899Z,965
2022-10-20T13:54:35.499Z,965
2022-10-20T13:59:38.626Z,965
2022-10-20T14:04:42.326Z,965
2022-10-20T14:09:47.451Z,965
2022-10-20T14:14:51.056Z,965
2022-10-20T14:19:52.631Z,965
2022-10-20T14:24:54.238Z,965
2022-10-20T14:29:55.982Z,965
2022-10-20T14:39:58.176Z,965
2022-10-20T14:44:59.856Z,965
2022-10-20T14:50:01.611Z,965
2022-10-20T14:55:03.272Z,965
2022-10-20T15:00:05.134Z,965
2022-10-20T15:05:06.810Z,965
2022-10-20T15:10:08.407Z,965
2022-10-20T15:15:10.165Z,965
2022-10-20T15:20:11.853Z,965
2022-10-20T15:25:13.692Z,965
2022-10-20T15:30:15.280Z,965
2022-10-20T15:35:16.933Z,965
2022-10-20T15:40:18.559Z,964
2022-10-20T15:45:20.130Z,964
2022-10-20T15:50:24.225Z,965
2022-10-20T15:55:26.686Z,965
2022-10-20T16:00:28.278Z,964
2022-10-20T16:05:29.886Z,964
2022-10-20T16:10:31.606Z,964
2022-10-20T16:15:33.240Z,964
2022-10-20T16:20:34.865Z,964
2022-10-20T16:25:36.431Z,964
2022-10-20T16:30:38.026Z,964
2022-10-20T16:35:39.701Z,964
2022-10-20T16:40:41.454Z,964
2022-10-20T16:45:43.141Z,964
2022-10-20T16:50:44.813Z,964
2022-10-20T16:55:46.542Z,964
2022-10-20T17:00:48.190Z,964
2022-10-20T17:05:49.858Z,964
2022-10-20T17:10:51.509Z,964
2022-10-20T17:15:53.128Z,964
2022-10-20T17:20:54.733Z,964
2022-10-20T17:25:56.346Z,964
2022-10-20T17:30:57.971Z,964
2022-10-20T17:35:59.564Z,964
2022-10-20T17:41:01.232Z,964
2022-10-20T17:46:02.850Z,964
2022-10-20T17:51:04.536Z,964
2022-10-20T17:56:06.173Z,964
2022-10-20T18:01:07.816Z,964
2022-10-20T18:06:09.515Z,964
2022-10-20T18:11:11.142Z,964
2022-10-20T18:16:12.748Z,964
2022-10-20T18:21:14.341Z,964
2022-10-20T18:26:15.934Z,964
2022-10-20T18:31:17.555Z,964
2022-10-20T18:36:19.217Z,964
2022-10-20T18:41:20.900Z,964
2022-10-20T18:46:22.558Z,964
2022-10-20T18:51:24.190Z,964
2022-10-20T18:56:25.885Z,964
2022-10-20T19:01:27.643Z,964
2022-10-20T19:06:29.336Z,964
2022-10-20T19:11:31.072Z,964
2022-10-20T19:16:32.692Z,964
2022-10-20T19:21:34.399Z,964
2022-10-20T19:26:36.009Z,964
2022-10-20T19:31:37.608Z,964
2022-10-20T19:36:39.246Z,964
2022-10-20T19:41:40.867Z,964
2022-10-20T19:46:42.493Z,964
2022-10-20T19:51:44.150Z,964
2022-10-20T19:56:45.828Z,964
2022-10-20T20:01:47.446Z,964
2022-10-20T20:06:49.177Z,964
2022-10-20T20:11:50.847Z,964
2022-10-20T20:16:52.455Z,963
2022-10-20T20:21:54.094Z,963
2022-10-20T20:26:55.759Z,963
2022-10-20T20:31:57.381Z,963
2022-10-20T20:36:59.039Z,963
2022-10-20T20:42:00.742Z,963
2022-10-20T20:47:02.384Z,963
2022-10-20T20:52:03.958Z,963
2022-10-20T20:57:05.610Z,963
2022-10-20T21:02:07.312Z,963
2022-10-20T21:07:08.940Z,963
2022-10-20T21:17:12.241Z,962
2022-10-20T21:22:13.859Z,962
2022-10-20T21:27:15.461Z,962
2022-10-20T21:32:17.057Z,962
2022-10-20T21:37:18.689Z,962
2022-10-20T21:42:20.314Z,962
2022-10-20T21:47:21.969Z,962
2022-10-20T21:52:23.583Z,962
2022-10-20T21:57:25.320Z,962
2022-10-20T22:02:26.933Z,962
2022-10-20T22:07:28.672Z,962
2022-10-20T22:12:30.424Z,961
2022-10-20T22:17:32.056Z,961
2022-10-20T22:22:33.725Z,961
2022-10-20T22:27:42.308Z,961
2022-10-20T22:32:44.391Z,961
2022-10-20T22:37:45.996Z,961
2022-10-20T22:42:47.683Z,961
2022-10-20T22:47:49.282Z,961
2022-10-20T22:52:50.895Z,961
2022-10-20T22:57:52.591Z,961
2022-10-20T23:02:54.309Z,961
2022-10-20T23:07:55.949Z,961
2022-10-20T23:12:57.819Z,961
2022-10-20T23:17:59.461Z,961
2022-10-20T23:23:01.125Z,961
2022-10-20T23:28:02.837Z,961
2022-10-20T23:33:04.636Z,961
2022-10-20T23:38:06.240Z,961
2022-10-20T23:43:07.804Z,961
2022-10-20T23:48:09.514Z,961
2022-10-20T23:53:11.127Z,961
2022-10-20T23:58:12.751Z,961
